LIC0243 LEBB-LEZL
Flight info
| Callsign | LIC0243 |
|---|---|
| Flight time | 1h 7m |
| Altitude | 33000 |
| Route | AMTOS L14 NEA N864 MONTO N857 HIJ |
| Aircraft | B738/M-SBDGIJ1LRWY/SB1 |
Departure
| Time | 2026-04-26 16:46 |
|---|---|
| Airport | Bilbao Airport (LEBB) |
Arrival
| Time | 2026-04-26 17:54 |
|---|---|
| Airport | Seville Airport (LEZL) |
| Time | Latitude | Longitude | Altitude | Speed | Heading |
|---|---|---|---|---|---|
| 2026-04-26 16:18 | 43.30397 | -2.90584 | 156 ft | 0 kts | 26° |
| 2026-04-26 16:39 | 43.30387 | -2.90591 | 155 ft | 2 kts | 27° |
| 2026-04-26 16:39 | 43.30373 | -2.90601 | 154 ft | 2 kts | 39° |
| 2026-04-26 16:39 | 43.30364 | -2.90616 | 153 ft | 2 kts | 62° |
| 2026-04-26 16:39 | 43.30359 | -2.90636 | 153 ft | 2 kts | 84° |
| 2026-04-26 16:40 | 43.30359 | -2.90657 | 152 ft | 2 kts | 105° |
| 2026-04-26 16:40 | 43.30362 | -2.90668 | 152 ft | 1 kts | 117° |
| 2026-04-26 16:40 | 43.30365 | -2.90674 | 152 ft | 0 kts | 116° |
| 2026-04-26 16:42 | 43.30364 | -2.90673 | 152 ft | 0 kts | 116° |
| 2026-04-26 16:43 | 43.30349 | -2.90632 | 152 ft | 7 kts | 118° |
| 2026-04-26 16:43 | 43.30308 | -2.90579 | 151 ft | 10 kts | 144° |
| 2026-04-26 16:43 | 43.30231 | -2.90527 | 147 ft | 15 kts | 188° |
| 2026-04-26 16:43 | 43.30129 | -2.90564 | 142 ft | 15 kts | 152° |
| 2026-04-26 16:44 | 43.30063 | -2.90420 | 140 ft | 19 kts | 116° |
| 2026-04-26 16:44 | 43.30000 | -2.90250 | 138 ft | 20 kts | 117° |
| 2026-04-26 16:44 | 43.29934 | -2.90071 | 133 ft | 22 kts | 116° |
| 2026-04-26 16:44 | 43.29859 | -2.89867 | 123 ft | 24 kts | 117° |
| 2026-04-26 16:45 | 43.29791 | -2.89678 | 112 ft | 22 kts | 117° |
| 2026-04-26 16:45 | 43.29712 | -2.89597 | 108 ft | 11 kts | 197° |
| 2026-04-26 16:45 | 43.29635 | -2.89689 | 109 ft | 23 kts | 258° |
| 2026-04-26 16:45 | 43.29747 | -2.90073 | 125 ft | 77 kts | 293° |
| 2026-04-26 16:46 | 43.30101 | -2.91052 | 134 ft | 148 kts | 295° |
| 2026-04-26 16:46 | 43.30615 | -2.92417 | 683 ft | 164 kts | 299° |
| 2026-04-26 16:46 | 43.31135 | -2.93775 | 1522 ft | 169 kts | 297° |
| 2026-04-26 16:46 | 43.31681 | -2.95312 | 2001 ft | 190 kts | 297° |
| 2026-04-26 16:47 | 43.32299 | -2.96982 | 2536 ft | 203 kts | 305° |
| 2026-04-26 16:47 | 43.33278 | -2.98378 | 3202 ft | 209 kts | 326° |
| 2026-04-26 16:47 | 43.34527 | -2.99501 | 3770 ft | 223 kts | 329° |
| 2026-04-26 16:47 | 43.35787 | -3.00802 | 4470 ft | 233 kts | 320° |
| 2026-04-26 16:48 | 43.36991 | -3.02428 | 4999 ft | 251 kts | 314° |
| 2026-04-26 16:48 | 43.38180 | -3.04250 | 5619 ft | 265 kts | 312° |
| 2026-04-26 16:48 | 43.39420 | -3.06208 | 5924 ft | 272 kts | 312° |
| 2026-04-26 16:48 | 43.40494 | -3.08372 | 5953 ft | 274 kts | 291° |
| 2026-04-26 16:49 | 43.40667 | -3.10930 | 6080 ft | 279 kts | 257° |
| 2026-04-26 16:49 | 43.39712 | -3.13284 | 6717 ft | 291 kts | 223° |
| 2026-04-26 16:49 | 43.37965 | -3.14591 | 7710 ft | 288 kts | 195° |
| 2026-04-26 16:49 | 43.35979 | -3.14996 | 8575 ft | 289 kts | 185° |
| 2026-04-26 16:50 | 43.33946 | -3.15180 | 9404 ft | 292 kts | 184° |
| 2026-04-26 16:50 | 43.31921 | -3.15313 | 10229 ft | 295 kts | 182° |
| 2026-04-26 16:50 | 43.29831 | -3.15391 | 10778 ft | 307 kts | 181° |
| 2026-04-26 16:50 | 43.27659 | -3.15233 | 11241 ft | 322 kts | 172° |
| 2026-04-26 16:51 | 43.25434 | -3.14509 | 11660 ft | 338 kts | 161° |
| 2026-04-26 16:51 | 43.23207 | -3.13223 | 12120 ft | 352 kts | 153° |
| 2026-04-26 16:51 | 43.21079 | -3.11481 | 12745 ft | 359 kts | 146° |
| 2026-04-26 16:51 | 43.18924 | -3.09786 | 13389 ft | 365 kts | 159° |
| 2026-04-26 16:52 | 43.16420 | -3.09140 | 14099 ft | 368 kts | 180° |
| 2026-04-26 16:52 | 43.14736 | -3.09362 | 14601 ft | 369 kts | 191° |
| 2026-04-26 16:52 | 43.11520 | -3.10979 | 15498 ft | 375 kts | 209° |
| 2026-04-26 16:52 | 43.09311 | -3.12912 | 16214 ft | 377 kts | 214° |
| 2026-04-26 16:53 | 43.07159 | -3.14981 | 16895 ft | 380 kts | 215° |
| 2026-04-26 16:53 | 43.05010 | -3.17100 | 17540 ft | 384 kts | 216° |
| 2026-04-26 16:53 | 43.02826 | -3.19266 | 18196 ft | 388 kts | 216° |
| 2026-04-26 16:53 | 43.00653 | -3.21415 | 18822 ft | 392 kts | 216° |
| 2026-04-26 16:54 | 42.98422 | -3.23591 | 19446 ft | 395 kts | 215° |
| 2026-04-26 16:54 | 42.96145 | -3.25743 | 20057 ft | 399 kts | 214° |
| 2026-04-26 16:54 | 42.93832 | -3.27889 | 20655 ft | 403 kts | 214° |
| 2026-04-26 16:54 | 42.91502 | -3.30035 | 21213 ft | 407 kts | 214° |
| 2026-04-26 16:55 | 42.89161 | -3.32187 | 21790 ft | 410 kts | 214° |
| 2026-04-26 16:55 | 42.86775 | -3.34382 | 22397 ft | 413 kts | 214° |
| 2026-04-26 16:55 | 42.84394 | -3.36574 | 22932 ft | 416 kts | 214° |
| 2026-04-26 16:55 | 42.82020 | -3.38762 | 23501 ft | 419 kts | 214° |
| 2026-04-26 16:56 | 42.77119 | -3.43279 | 24530 ft | 426 kts | 214° |
| 2026-04-26 16:56 | 42.74667 | -3.45538 | 25117 ft | 427 kts | 215° |
| 2026-04-26 16:56 | 42.72219 | -3.47793 | 25619 ft | 429 kts | 214° |
| 2026-04-26 16:57 | 42.69706 | -3.50106 | 26092 ft | 432 kts | 214° |
| 2026-04-26 16:57 | 42.67216 | -3.52396 | 26536 ft | 436 kts | 214° |
| 2026-04-26 16:57 | 42.62158 | -3.57040 | 27395 ft | 442 kts | 214° |
| 2026-04-26 16:58 | 42.59592 | -3.59391 | 27795 ft | 446 kts | 214° |
| 2026-04-26 16:58 | 42.57911 | -3.60930 | 28082 ft | 448 kts | 214° |
| 2026-04-26 16:58 | 42.51856 | -3.66465 | 29179 ft | 451 kts | 214° |
| 2026-04-26 16:59 | 42.49255 | -3.68838 | 29884 ft | 446 kts | 214° |
| 2026-04-26 16:59 | 42.44115 | -3.73524 | 30904 ft | 445 kts | 214° |
| 2026-04-26 17:00 | 42.39019 | -3.78160 | 31918 ft | 443 kts | 214° |
| 2026-04-26 17:00 | 42.33888 | -3.82819 | 32850 ft | 442 kts | 214° |
| 2026-04-26 17:00 | 42.31347 | -3.85125 | 33173 ft | 443 kts | 214° |
| 2026-04-26 17:01 | 42.26250 | -3.89740 | 33161 ft | 441 kts | 214° |
| 2026-04-26 17:01 | 42.21145 | -3.94351 | 33158 ft | 440 kts | 214° |
| 2026-04-26 17:02 | 42.16091 | -3.98906 | 33158 ft | 440 kts | 214° |
| 2026-04-26 17:02 | 42.10956 | -4.03527 | 33156 ft | 441 kts | 214° |
| 2026-04-26 17:03 | 42.05833 | -4.08047 | 33158 ft | 441 kts | 211° |
| 2026-04-26 17:03 | 42.00211 | -4.11208 | 33159 ft | 443 kts | 193° |
| 2026-04-26 17:04 | 41.94107 | -4.12350 | 33152 ft | 443 kts | 185° |
| 2026-04-26 17:04 | 41.87927 | -4.12913 | 33155 ft | 443 kts | 184° |
| 2026-04-26 17:05 | 41.81761 | -4.13443 | 33153 ft | 444 kts | 184° |
| 2026-04-26 17:05 | 41.75606 | -4.14049 | 33152 ft | 444 kts | 185° |
| 2026-04-26 17:06 | 41.69464 | -4.14707 | 33152 ft | 444 kts | 185° |
| 2026-04-26 17:06 | 41.63325 | -4.15390 | 33145 ft | 443 kts | 185° |
| 2026-04-26 17:07 | 41.57184 | -4.16083 | 33155 ft | 444 kts | 185° |
| 2026-04-26 17:07 | 41.51022 | -4.16779 | 33158 ft | 444 kts | 185° |
| 2026-04-26 17:08 | 41.44871 | -4.17473 | 33158 ft | 444 kts | 185° |
| 2026-04-26 17:08 | 41.38708 | -4.18167 | 33156 ft | 445 kts | 185° |
| 2026-04-26 17:09 | 41.33566 | -4.18744 | 33158 ft | 444 kts | 185° |
| 2026-04-26 17:09 | 41.26393 | -4.19548 | 33153 ft | 444 kts | 185° |
| 2026-04-26 17:10 | 41.20246 | -4.20235 | 33156 ft | 444 kts | 186° |
| 2026-04-26 17:10 | 41.14061 | -4.20924 | 33156 ft | 445 kts | 185° |
| 2026-04-26 17:11 | 41.07879 | -4.21613 | 33167 ft | 444 kts | 185° |
| 2026-04-26 17:11 | 41.01749 | -4.22294 | 33160 ft | 445 kts | 186° |
| 2026-04-26 17:12 | 40.92518 | -4.23317 | 33157 ft | 444 kts | 186° |
| 2026-04-26 17:13 | 40.83241 | -4.24341 | 33157 ft | 444 kts | 185° |
| 2026-04-26 17:14 | 40.74050 | -4.25353 | 33169 ft | 444 kts | 186° |
| 2026-04-26 17:14 | 40.64782 | -4.26370 | 33149 ft | 444 kts | 185° |
| 2026-04-26 17:15 | 40.55553 | -4.27381 | 33144 ft | 445 kts | 185° |
| 2026-04-26 17:16 | 40.49417 | -4.28051 | 33146 ft | 444 kts | 185° |
| 2026-04-26 17:16 | 40.43240 | -4.28725 | 33134 ft | 443 kts | 185° |
| 2026-04-26 17:17 | 40.37104 | -4.29392 | 33124 ft | 444 kts | 185° |
| 2026-04-26 17:17 | 40.30940 | -4.30063 | 33101 ft | 445 kts | 185° |
| 2026-04-26 17:18 | 40.24815 | -4.30729 | 33085 ft | 443 kts | 185° |
| 2026-04-26 17:18 | 40.18668 | -4.31393 | 33086 ft | 443 kts | 185° |
| 2026-04-26 17:19 | 40.09427 | -4.32389 | 33083 ft | 445 kts | 185° |
| 2026-04-26 17:19 | 40.03270 | -4.33053 | 33072 ft | 445 kts | 185° |
| 2026-04-26 17:20 | 39.99164 | -4.33495 | 33072 ft | 444 kts | 185° |
| 2026-04-26 17:20 | 39.91023 | -4.34728 | 33081 ft | 442 kts | 190° |
| 2026-04-26 17:21 | 39.84956 | -4.36106 | 33076 ft | 443 kts | 191° |
| 2026-04-26 17:21 | 39.78880 | -4.37514 | 33079 ft | 444 kts | 191° |
| 2026-04-26 17:22 | 39.72760 | -4.38893 | 33084 ft | 444 kts | 191° |
| 2026-04-26 17:22 | 39.66678 | -4.40225 | 33092 ft | 444 kts | 190° |
| 2026-04-26 17:23 | 39.60602 | -4.41534 | 33090 ft | 444 kts | 190° |
| 2026-04-26 17:23 | 39.54503 | -4.42836 | 33092 ft | 443 kts | 191° |
| 2026-04-26 17:24 | 39.48410 | -4.44132 | 33085 ft | 444 kts | 191° |
| 2026-04-26 17:24 | 39.42319 | -4.45425 | 33083 ft | 443 kts | 191° |
| 2026-04-26 17:25 | 39.36227 | -4.46715 | 33084 ft | 443 kts | 191° |
| 2026-04-26 17:25 | 39.30157 | -4.47999 | 33088 ft | 444 kts | 191° |
| 2026-04-26 17:26 | 39.24076 | -4.49510 | 33085 ft | 443 kts | 197° |
| 2026-04-26 17:26 | 39.18478 | -4.52661 | 33084 ft | 441 kts | 212° |
| 2026-04-26 17:27 | 39.13321 | -4.56880 | 33064 ft | 439 kts | 216° |
| 2026-04-26 17:27 | 39.08244 | -4.61322 | 33062 ft | 440 kts | 216° |
| 2026-04-26 17:28 | 39.03177 | -4.65742 | 33057 ft | 441 kts | 216° |
| 2026-04-26 17:28 | 38.98070 | -4.70143 | 33063 ft | 441 kts | 215° |
| 2026-04-26 17:29 | 38.93811 | -4.73778 | 33057 ft | 443 kts | 215° |
| 2026-04-26 17:29 | 38.87819 | -4.78859 | 33049 ft | 442 kts | 215° |
| 2026-04-26 17:30 | 38.82709 | -4.83175 | 32721 ft | 436 kts | 215° |
| 2026-04-26 17:30 | 38.80201 | -4.85289 | 32413 ft | 427 kts | 215° |
| 2026-04-26 17:30 | 38.77755 | -4.87347 | 32124 ft | 420 kts | 215° |
| 2026-04-26 17:31 | 38.75328 | -4.89391 | 31719 ft | 426 kts | 215° |
| 2026-04-26 17:31 | 38.72811 | -4.91511 | 31223 ft | 429 kts | 215° |
| 2026-04-26 17:31 | 38.70336 | -4.93592 | 30737 ft | 425 kts | 215° |
| 2026-04-26 17:31 | 38.67878 | -4.95657 | 30256 ft | 421 kts | 215° |
| 2026-04-26 17:32 | 38.65448 | -4.97694 | 29774 ft | 417 kts | 215° |
| 2026-04-26 17:32 | 38.63048 | -4.99705 | 29303 ft | 413 kts | 214° |
| 2026-04-26 17:32 | 38.60672 | -5.01696 | 28836 ft | 409 kts | 214° |
| 2026-04-26 17:32 | 38.58313 | -5.03669 | 28364 ft | 405 kts | 214° |
| 2026-04-26 17:33 | 38.55971 | -5.05628 | 27899 ft | 401 kts | 214° |
| 2026-04-26 17:33 | 38.53658 | -5.07561 | 27433 ft | 397 kts | 214° |
| 2026-04-26 17:33 | 38.51358 | -5.09497 | 26974 ft | 393 kts | 216° |
| 2026-04-26 17:34 | 38.47103 | -5.13756 | 26060 ft | 385 kts | 222° |
| 2026-04-26 17:34 | 38.45113 | -5.15980 | 25606 ft | 381 kts | 223° |
| 2026-04-26 17:34 | 38.43134 | -5.18226 | 25153 ft | 379 kts | 223° |
| 2026-04-26 17:34 | 38.41151 | -5.20475 | 24699 ft | 384 kts | 223° |
| 2026-04-26 17:35 | 38.39144 | -5.22736 | 24219 ft | 384 kts | 222° |
| 2026-04-26 17:35 | 38.37165 | -5.24948 | 23757 ft | 380 kts | 222° |
| 2026-04-26 17:35 | 38.35180 | -5.27153 | 23296 ft | 377 kts | 222° |
| 2026-04-26 17:35 | 38.33214 | -5.29330 | 22840 ft | 373 kts | 221° |
| 2026-04-26 17:36 | 38.31280 | -5.31462 | 22388 ft | 369 kts | 221° |
| 2026-04-26 17:36 | 38.29333 | -5.33603 | 21932 ft | 366 kts | 221° |
| 2026-04-26 17:36 | 38.27428 | -5.35694 | 21486 ft | 363 kts | 221° |
| 2026-04-26 17:36 | 38.25535 | -5.37770 | 21040 ft | 359 kts | 221° |
| 2026-04-26 17:37 | 38.23638 | -5.39848 | 20591 ft | 356 kts | 221° |
| 2026-04-26 17:37 | 38.21769 | -5.41893 | 20145 ft | 354 kts | 221° |
| 2026-04-26 17:37 | 38.19922 | -5.43914 | 19701 ft | 351 kts | 221° |
| 2026-04-26 17:38 | 38.16225 | -5.47955 | 18813 ft | 354 kts | 221° |
| 2026-04-26 17:38 | 38.14370 | -5.49981 | 18358 ft | 353 kts | 221° |
| 2026-04-26 17:38 | 38.12503 | -5.52019 | 17901 ft | 350 kts | 221° |
| 2026-04-26 17:38 | 38.10676 | -5.54012 | 17454 ft | 348 kts | 221° |
| 2026-04-26 17:39 | 38.08863 | -5.55988 | 17009 ft | 345 kts | 220° |
| 2026-04-26 17:39 | 38.07053 | -5.57959 | 16565 ft | 343 kts | 220° |
| 2026-04-26 17:39 | 38.05247 | -5.59924 | 16120 ft | 341 kts | 220° |
| 2026-04-26 17:39 | 38.03436 | -5.61893 | 15674 ft | 339 kts | 220° |
| 2026-04-26 17:40 | 38.01659 | -5.63825 | 15234 ft | 337 kts | 220° |
| 2026-04-26 17:40 | 38.01065 | -5.64470 | 15088 ft | 337 kts | 220° |
| 2026-04-26 17:40 | 37.98131 | -5.67654 | 14361 ft | 334 kts | 219° |
| 2026-04-26 17:40 | 37.96379 | -5.69554 | 13924 ft | 332 kts | 219° |
| 2026-04-26 17:41 | 37.94640 | -5.71439 | 13493 ft | 330 kts | 218° |
| 2026-04-26 17:41 | 37.92900 | -5.73322 | 13067 ft | 329 kts | 219° |
| 2026-04-26 17:41 | 37.91169 | -5.75195 | 12640 ft | 327 kts | 219° |
| 2026-04-26 17:41 | 37.89434 | -5.77071 | 12203 ft | 326 kts | 219° |
| 2026-04-26 17:42 | 37.87732 | -5.78911 | 11789 ft | 324 kts | 219° |
| 2026-04-26 17:42 | 37.86004 | -5.80777 | 11371 ft | 322 kts | 219° |
| 2026-04-26 17:42 | 37.84311 | -5.82604 | 10952 ft | 321 kts | 219° |
| 2026-04-26 17:42 | 37.82628 | -5.84420 | 10538 ft | 320 kts | 219° |
| 2026-04-26 17:43 | 37.80957 | -5.86221 | 10229 ft | 314 kts | 219° |
| 2026-04-26 17:43 | 37.79322 | -5.87983 | 10095 ft | 303 kts | 219° |
| 2026-04-26 17:43 | 37.77718 | -5.89713 | 9799 ft | 299 kts | 219° |
| 2026-04-26 17:43 | 37.76136 | -5.91414 | 9402 ft | 299 kts | 219° |
| 2026-04-26 17:44 | 37.74556 | -5.93113 | 9039 ft | 298 kts | 219° |
| 2026-04-26 17:44 | 37.72996 | -5.94789 | 8682 ft | 296 kts | 219° |
| 2026-04-26 17:44 | 37.71437 | -5.96463 | 8321 ft | 295 kts | 219° |
| 2026-04-26 17:44 | 37.69878 | -5.98138 | 7963 ft | 293 kts | 219° |
| 2026-04-26 17:45 | 37.68322 | -5.99807 | 7624 ft | 291 kts | 219° |
| 2026-04-26 17:45 | 37.66786 | -6.01454 | 7266 ft | 290 kts | 219° |
| 2026-04-26 17:45 | 37.65261 | -6.03118 | 6908 ft | 288 kts | 222° |
| 2026-04-26 17:45 | 37.63842 | -6.04885 | 6571 ft | 286 kts | 224° |
| 2026-04-26 17:46 | 37.62422 | -6.06633 | 6219 ft | 285 kts | 221° |
| 2026-04-26 17:46 | 37.60902 | -6.08237 | 5877 ft | 283 kts | 215° |
| 2026-04-26 17:46 | 37.59281 | -6.09596 | 5536 ft | 280 kts | 209° |
| 2026-04-26 17:46 | 37.57590 | -6.10780 | 5195 ft | 279 kts | 205° |
| 2026-04-26 17:47 | 37.55865 | -6.11833 | 4836 ft | 274 kts | 202° |
| 2026-04-26 17:47 | 37.55284 | -6.12162 | 4734 ft | 271 kts | 202° |
| 2026-04-26 17:47 | 37.52431 | -6.13556 | 4190 ft | 258 kts | 195° |
| 2026-04-26 17:47 | 37.50725 | -6.14172 | 3885 ft | 248 kts | 192° |
| 2026-04-26 17:48 | 37.49097 | -6.14644 | 3695 ft | 234 kts | 189° |
| 2026-04-26 17:48 | 37.47526 | -6.15009 | 3519 ft | 222 kts | 186° |
| 2026-04-26 17:48 | 37.46036 | -6.15247 | 3318 ft | 213 kts | 182° |
| 2026-04-26 17:48 | 37.44584 | -6.15388 | 3091 ft | 204 kts | 180° |
| 2026-04-26 17:49 | 37.43203 | -6.15307 | 2838 ft | 193 kts | 160° |
| 2026-04-26 17:49 | 37.42132 | -6.14417 | 2598 ft | 182 kts | 123° |
| 2026-04-26 17:49 | 37.41763 | -6.12970 | 2375 ft | 176 kts | 91° |
| 2026-04-26 17:49 | 37.41743 | -6.11445 | 2428 ft | 176 kts | 91° |
| 2026-04-26 17:50 | 37.41714 | -6.09896 | 2429 ft | 176 kts | 90° |
| 2026-04-26 17:50 | 37.41711 | -6.08370 | 2443 ft | 169 kts | 89° |
| 2026-04-26 17:50 | 37.41722 | -6.06944 | 2419 ft | 161 kts | 89° |
| 2026-04-26 17:50 | 37.41729 | -6.05515 | 2271 ft | 164 kts | 90° |
| 2026-04-26 17:51 | 37.41736 | -6.04098 | 2020 ft | 159 kts | 90° |
| 2026-04-26 17:51 | 37.41742 | -6.02725 | 1876 ft | 157 kts | 90° |
| 2026-04-26 17:51 | 37.41748 | -6.01381 | 1602 ft | 153 kts | 90° |
| 2026-04-26 17:51 | 37.41753 | -6.00061 | 1423 ft | 148 kts | 88° |
| 2026-04-26 17:52 | 37.41761 | -5.98775 | 1234 ft | 148 kts | 90° |
| 2026-04-26 17:52 | 37.41767 | -5.97475 | 1045 ft | 149 kts | 91° |
| 2026-04-26 17:52 | 37.41765 | -5.96175 | 853 ft | 148 kts | 89° |
| 2026-04-26 17:52 | 37.41782 | -5.94888 | 663 ft | 147 kts | 89° |
| 2026-04-26 17:53 | 37.41772 | -5.93595 | 470 ft | 147 kts | 89° |
| 2026-04-26 17:53 | 37.41793 | -5.92303 | 275 ft | 148 kts | 91° |
| 2026-04-26 17:53 | 37.41786 | -5.91004 | 98 ft | 147 kts | 90° |
| 2026-04-26 17:54 | 37.41798 | -5.89343 | 88 ft | 27 kts | 90° |
| 2026-04-26 17:54 | 37.41843 | -5.89263 | 89 ft | 13 kts | 330° |
| 2026-04-26 17:54 | 37.41920 | -5.89317 | 90 ft | 12 kts | 331° |
| 2026-04-26 17:54 | 37.41988 | -5.89369 | 91 ft | 10 kts | 320° |
| 2026-04-26 17:55 | 37.42034 | -5.89426 | 91 ft | 9 kts | 315° |
| 2026-04-26 17:55 | 37.42078 | -5.89481 | 91 ft | 8 kts | 314° |
| 2026-04-26 17:55 | 37.42120 | -5.89536 | 91 ft | 10 kts | 314° |
| 2026-04-26 17:55 | 37.42179 | -5.89611 | 91 ft | 13 kts | 314° |
| 2026-04-26 17:56 | 37.42239 | -5.89690 | 92 ft | 10 kts | 314° |
| 2026-04-26 17:56 | 37.42232 | -5.89821 | 92 ft | 8 kts | 295° |
| 2026-04-26 17:57 | 37.42276 | -5.89883 | 93 ft | 0 kts | 315° |